首页
METAR-TAF:

METAR-TAF

机场 :

雅典, 希腊

雅典埃莱夫塞里奥斯·韦尼泽洛斯国际机场

纬度: 37-56N, 经度: 023-56E, 海拔: 94米

当前天气观测

该预报发布于22分钟前的01:20 UTC
风速2节,风向多变
温度 8°C
湿度 25%
气压 1017 hPa
能见度10公里或以上
少量云层高于2500英尺

METAR: LGAV 190120Z VRB02KT 9999 FEW025 08/M11 Q1017 NOSIG

时间: 03:42 (01:42 UTC)

预报

该预报发布于2小时和42分钟前的23:00 UTC
预报有效从19日的 00点(UTC)到 19日的 24点(UTC)
风速12节,风向西
能见度10公里或以上
少量云层高于2500英尺
成为
从 19日的 12点(UTC)到 19日的 14点(UTC)
风速10节,风向南转西南

TAF: LGAV 182300Z 1900/1924 27012KT 9999 FEW025 BECMG 1912/1914 21010KT

超过4000个机场的气象观测和天气预报(METAR&TAF报告)。

可查询的气象台以黄色和红色小点在地图上表示。

将鼠标移到小点上方,可查看气象台名称。

然后点击查看天气观测和预报。

如需切换地图:点击带黑十字的绿色按钮放大地图;点击带横线的绿色按钮缩小地图;或者点击绿色箭头查看邻近地区的地图。


METAR-TAF: